createdAt,value
2023-05-08T00:01:25.291Z,1.70
2023-05-08T00:03:52.589Z,1.25
2023-05-08T00:06:19.503Z,1.13
2023-05-08T00:08:46.086Z,0.98
2023-05-08T00:11:12.664Z,1.10
2023-05-08T00:13:41.216Z,0.98
2023-05-08T00:16:12.679Z,1.17
2023-05-08T00:18:39.924Z,1.05
2023-05-08T00:21:12.657Z,0.95
2023-05-08T00:23:39.323Z,1.35
2023-05-08T00:26:05.940Z,1.38
2023-05-08T00:28:32.472Z,1.10
2023-05-08T00:31:02.325Z,0.85
2023-05-08T00:33:29.071Z,1.13
2023-05-08T00:36:05.675Z,1.63
2023-05-08T00:38:33.766Z,0.80
2023-05-08T00:41:01.271Z,1.83
2023-05-08T00:43:28.691Z,1.73
2023-05-08T00:45:57.105Z,1.90
2023-05-08T00:48:25.343Z,3.15
2023-05-08T00:50:54.464Z,3.20
2023-05-08T00:53:23.125Z,3.67
2023-05-08T00:55:51.690Z,3.88
2023-05-08T00:58:20.972Z,3.15
2023-05-08T01:00:50.643Z,4.40
2023-05-08T01:03:17.493Z,4.07
2023-05-08T01:05:44.328Z,4.15
2023-05-08T01:08:10.914Z,5.65
2023-05-08T01:11:19.244Z,5.00
2023-05-08T01:14:04.656Z,5.07
2023-05-08T01:16:49.947Z,5.97
2023-05-08T01:19:44.509Z,5.63
2023-05-08T01:22:52.500Z,5.78
2023-05-08T01:25:41.838Z,5.68
2023-05-08T01:28:20.162Z,6.35
2023-05-08T01:31:24.038Z,6.70
2023-05-08T01:34:00.025Z,6.82
2023-05-08T01:36:51.753Z,6.40
2023-05-08T01:40:00.944Z,7.20
2023-05-08T01:42:49.159Z,6.47
2023-05-08T01:45:22.316Z,7.25
2023-05-08T01:47:55.069Z,6.60
2023-05-08T01:50:30.479Z,6.65
2023-05-08T01:53:00.424Z,6.13
2023-05-08T01:55:34.256Z,6.75
2023-05-08T01:58:04.823Z,7.30
2023-05-08T02:00:31.847Z,7.70
2023-05-08T02:02:59.227Z,7.03
2023-05-08T02:05:28.394Z,6.90
2023-05-08T02:07:55.896Z,6.63
2023-05-08T02:10:25.910Z,6.22
2023-05-08T02:12:54.557Z,6.63
2023-05-08T02:15:22.199Z,6.18
2023-05-08T02:17:50.470Z,7.00
2023-05-08T02:20:20.089Z,6.80
2023-05-08T02:22:50.361Z,6.35
2023-05-08T02:25:18.106Z,6.55
2023-05-08T02:27:50.429Z,6.30
2023-05-08T02:30:19.096Z,6.65
2023-05-08T02:32:47.779Z,5.85
2023-05-08T02:35:16.965Z,6.82
2023-05-08T02:37:46.933Z,6.65
2023-05-08T02:40:15.166Z,7.30
2023-05-08T02:42:42.325Z,6.03
2023-05-08T02:45:12.022Z,7.03
2023-05-08T02:48:01.560Z,6.40
2023-05-08T02:51:00.864Z,6.43
2023-05-08T02:53:40.667Z,6.35
2023-05-08T02:56:11.278Z,6.63
2023-05-08T02:58:48.642Z,6.50
2023-05-08T03:01:25.827Z,6.57
2023-05-08T03:04:06.761Z,6.72
2023-05-08T03:06:46.755Z,6.70
2023-05-08T03:09:21.488Z,6.40
2023-05-08T03:11:53.618Z,6.53
2023-05-08T03:14:23.818Z,6.53
2023-05-08T03:16:55.863Z,6.53
2023-05-08T03:19:29.944Z,6.13
2023-05-08T03:21:58.176Z,6.40
2023-05-08T03:24:28.021Z,5.63
2023-05-08T03:26:56.519Z,6.90
2023-05-08T03:29:25.371Z,6.78
2023-05-08T03:31:54.009Z,7.00
2023-05-08T03:34:23.095Z,6.25
2023-05-08T03:36:50.847Z,6.63
2023-05-08T03:39:18.217Z,6.75
2023-05-08T03:41:45.683Z,6.57
2023-05-08T03:44:14.065Z,6.60
2023-05-08T03:46:42.150Z,6.88
2023-05-08T03:49:09.537Z,6.45
2023-05-08T03:51:39.916Z,6.18
2023-05-08T03:54:06.555Z,6.68
2023-05-08T03:56:34.214Z,6.22
2023-05-08T03:59:14.223Z,6.47
2023-05-08T04:01:50.332Z,6.90
2023-05-08T04:04:19.503Z,5.80
2023-05-08T04:07:12.336Z,7.82
2023-05-08T04:10:10.807Z,6.35
2023-05-08T04:12:50.544Z,6.78
2023-05-08T04:15:20.659Z,6.55
2023-05-08T04:17:55.799Z,6.97
2023-05-08T04:20:25.987Z,6.43
2023-05-08T04:22:54.742Z,6.50
2023-05-08T04:25:23.182Z,6.95
2023-05-08T04:27:54.994Z,5.97
2023-05-08T04:30:22.392Z,7.53
2023-05-08T04:32:50.534Z,6.80
2023-05-08T04:35:17.714Z,7.10
2023-05-08T04:37:46.205Z,6.63
2023-05-08T04:40:13.480Z,6.95
2023-05-08T04:42:43.600Z,6.82
2023-05-08T04:45:11.132Z,6.75
2023-05-08T04:47:37.972Z,6.05
2023-05-08T04:50:05.623Z,7.13
2023-05-08T04:52:33.748Z,6.70
2023-05-08T04:55:01.324Z,6.07
2023-05-08T04:57:28.506Z,6.40
2023-05-08T04:59:55.218Z,6.88
2023-05-08T05:02:22.039Z,7.07
2023-05-08T05:04:49.216Z,6.55
2023-05-08T05:07:15.837Z,6.60
2023-05-08T05:09:42.427Z,6.93
2023-05-08T05:12:09.605Z,7.13
2023-05-08T05:14:36.292Z,6.63
2023-05-08T05:17:02.937Z,6.63
2023-05-08T05:19:29.666Z,6.88
2023-05-08T05:21:56.253Z,7.35
2023-05-08T05:24:23.000Z,6.78
2023-05-08T05:26:49.524Z,6.97
2023-05-08T05:29:16.207Z,6.78
2023-05-08T05:31:43.097Z,7.60
2023-05-08T05:34:10.050Z,6.95
2023-05-08T05:36:36.901Z,6.85
2023-05-08T05:39:03.877Z,6.75
2023-05-08T05:41:31.060Z,7.50
2023-05-08T05:43:57.683Z,6.88
2023-05-08T05:46:31.066Z,8.32
2023-05-08T05:48:58.973Z,6.70
2023-05-08T05:51:27.491Z,7.20
2023-05-08T05:53:54.976Z,6.70
2023-05-08T05:56:23.114Z,7.32
2023-05-08T05:58:49.723Z,7.32
2023-05-08T06:05:56.538Z,7.15
2023-05-08T06:08:23.422Z,6.35
2023-05-08T06:10:50.528Z,7.43
2023-05-08T06:13:17.226Z,8.18
2023-05-08T06:15:43.940Z,7.25
2023-05-08T06:18:10.951Z,7.07
2023-05-08T06:20:40.636Z,7.75
2023-05-08T06:23:07.341Z,7.32
2023-05-08T06:25:33.962Z,7.07
2023-05-08T06:28:01.446Z,8.77
2023-05-08T06:35:05.468Z,8.75
2023-05-08T06:37:32.074Z,8.68
2023-05-08T06:40:10.965Z,8.45
2023-05-08T06:42:38.443Z,7.78
2023-05-08T06:45:06.459Z,8.63
2023-05-08T06:47:33.025Z,8.15
2023-05-08T06:50:00.575Z,8.07
2023-05-08T06:52:27.179Z,8.10
2023-05-08T06:54:53.803Z,9.15
2023-05-08T06:57:20.437Z,9.00
2023-05-08T06:59:46.982Z,8.90
2023-05-08T07:02:16.013Z,8.60
2023-05-08T07:04:44.313Z,7.13
2023-05-08T07:07:11.518Z,7.32
2023-05-08T07:09:38.102Z,8.20
2023-05-08T07:21:23.782Z,6.72
2023-05-08T07:23:53.642Z,6.88
2023-05-08T07:26:20.353Z,7.03
2023-05-08T07:28:47.064Z,6.30
2023-05-08T07:31:13.602Z,6.97
2023-05-08T07:33:40.792Z,7.43
2023-05-08T07:36:07.499Z,7.00
2023-05-08T07:38:34.101Z,7.05
2023-05-08T07:49:02.503Z,6.90
2023-05-08T07:51:29.183Z,7.43
2023-05-08T07:53:55.906Z,6.88
2023-05-08T07:56:23.051Z,7.05
2023-05-08T07:58:49.750Z,6.97
2023-05-08T08:01:17.932Z,6.72
2023-05-08T08:03:48.229Z,6.32
2023-05-08T08:06:14.927Z,7.05
2023-05-08T08:08:41.389Z,6.55
2023-05-08T08:11:07.952Z,7.07
2023-05-08T08:13:34.576Z,6.45
2023-05-08T08:16:03.805Z,5.72
2023-05-08T08:18:33.970Z,5.55
2023-05-08T08:21:01.093Z,4.95
2023-05-08T08:23:27.598Z,5.28
2023-05-08T08:25:54.288Z,6.05
2023-05-08T08:28:20.807Z,5.40
2023-05-08T08:30:47.337Z,4.90
2023-05-08T08:33:13.917Z,5.05
2023-05-08T08:35:40.689Z,5.28
2023-05-08T08:38:07.223Z,6.90
2023-05-08T08:40:39.179Z,5.68
2023-05-08T08:43:05.822Z,5.85
2023-05-08T08:45:32.384Z,5.68
2023-05-08T08:48:01.960Z,5.80
2023-05-08T08:50:32.575Z,5.82
2023-05-08T08:53:11.017Z,7.28
2023-05-08T08:55:42.306Z,6.13
2023-05-08T08:58:27.172Z,5.97
2023-05-08T09:00:56.044Z,6.57
2023-05-08T09:03:22.670Z,5.63
2023-05-08T09:05:49.769Z,5.55
2023-05-08T09:08:18.584Z,5.80
2023-05-08T09:10:46.441Z,5.75
2023-05-08T09:13:13.028Z,5.22
2023-05-08T09:15:39.556Z,5.35
2023-05-08T09:18:06.496Z,5.40
2023-05-08T09:20:33.402Z,5.40
2023-05-08T09:23:02.604Z,3.22
2023-05-08T09:25:45.725Z,3.90
2023-05-08T09:28:19.441Z,3.80
2023-05-08T09:30:51.121Z,3.30
2023-05-08T09:33:18.501Z,2.50
2023-05-08T09:35:45.144Z,2.22
2023-05-08T09:38:29.858Z,2.47
2023-05-08T09:41:16.402Z,1.85
2023-05-08T09:43:44.536Z,2.25
2023-05-08T09:46:24.264Z,2.40
2023-05-08T09:48:55.330Z,3.13
2023-05-08T09:51:23.727Z,3.22
2023-05-08T09:54:46.874Z,3.10
2023-05-08T09:57:13.739Z,2.63
2023-05-08T10:04:18.564Z,2.90
2023-05-08T10:10:53.176Z,2.65
2023-05-08T10:13:19.815Z,2.95
2023-05-08T10:20:25.431Z,2.65
2023-05-08T10:22:53.588Z,2.15
2023-05-08T10:25:22.417Z,1.90
2023-05-08T10:28:18.404Z,2.15
2023-05-08T10:30:48.704Z,2.00
2023-05-08T10:33:19.938Z,1.67
2023-05-08T10:35:47.869Z,2.10
2023-05-08T10:38:16.431Z,2.13
2023-05-08T10:40:43.506Z,1.98
2023-05-08T10:43:10.081Z,2.63
2023-05-08T10:45:37.464Z,2.00
2023-05-08T10:48:32.490Z,2.25
2023-05-08T10:51:13.690Z,2.35
2023-05-08T10:53:53.704Z,2.78
2023-05-08T10:56:28.514Z,2.88
2023-05-08T10:58:59.320Z,2.55
2023-05-08T11:01:26.630Z,2.58
2023-05-08T11:03:55.565Z,1.83
2023-05-08T11:06:42.578Z,2.95
2023-05-08T11:09:09.211Z,2.78
2023-05-08T11:11:39.188Z,2.63
2023-05-08T11:14:08.731Z,2.70
2023-05-08T11:17:08.722Z,2.58
2023-05-08T11:19:36.394Z,2.58
2023-05-08T11:22:13.506Z,2.80
2023-05-08T11:25:01.455Z,2.47
2023-05-08T11:27:51.033Z,2.45
2023-05-08T11:30:33.158Z,2.65
2023-05-08T11:33:03.017Z,2.67
2023-05-08T11:35:44.606Z,2.28
2023-05-08T11:38:15.166Z,2.20
2023-05-08T11:40:45.875Z,2.10
2023-05-08T11:43:36.283Z,2.28
2023-05-08T11:46:08.308Z,2.85
2023-05-08T11:48:35.992Z,2.30
2023-05-08T11:51:03.605Z,2.70
2023-05-08T11:53:31.307Z,2.60
2023-05-08T11:55:59.643Z,2.60
2023-05-08T11:58:26.448Z,2.30
2023-05-08T12:00:53.132Z,3.30
2023-05-08T12:03:22.311Z,3.03
2023-05-08T12:05:50.363Z,2.78
2023-05-08T12:08:18.351Z,2.47
2023-05-08T12:10:56.746Z,2.33
2023-05-08T12:13:25.998Z,2.30
2023-05-08T12:15:57.815Z,2.40
2023-05-08T12:18:26.607Z,2.17
2023-05-08T12:20:57.633Z,2.30
2023-05-08T12:23:26.823Z,2.53
2023-05-08T12:25:55.445Z,2.25
2023-05-08T12:28:22.583Z,2.28
2023-05-08T12:30:49.700Z,2.55
2023-05-08T12:33:17.118Z,2.15
2023-05-08T12:35:44.040Z,2.25
2023-05-08T12:38:11.837Z,1.92
2023-05-08T12:40:55.932Z,2.65
2023-05-08T12:43:31.944Z,2.60
2023-05-08T12:45:58.563Z,2.65
2023-05-08T12:48:25.206Z,2.45
2023-05-08T12:50:51.785Z,2.45
2023-05-08T12:53:19.619Z,2.10
2023-05-08T12:55:54.339Z,1.55
2023-05-08T12:58:25.106Z,1.42
2023-05-08T13:00:52.796Z,1.35
2023-05-08T13:03:25.677Z,1.35
2023-05-08T13:05:53.890Z,1.90
2023-05-08T13:08:20.534Z,1.52
2023-05-08T13:10:54.303Z,1.13
2023-05-08T13:13:25.698Z,1.60
2023-05-08T13:15:54.362Z,1.10
2023-05-08T13:18:23.627Z,1.10
2023-05-08T13:20:50.401Z,1.50
2023-05-08T13:23:16.946Z,1.15
2023-05-08T13:25:43.732Z,1.35
2023-05-08T13:28:10.944Z,1.20
2023-05-08T13:30:38.007Z,1.35
2023-05-08T13:33:05.194Z,1.23
2023-05-08T13:35:32.761Z,1.25
2023-05-08T13:37:59.492Z,1.00
2023-05-08T13:40:26.366Z,1.20
2023-05-08T13:42:54.061Z,1.60
2023-05-08T13:45:20.779Z,1.52
2023-05-08T13:47:49.049Z,1.35
2023-05-08T13:50:17.116Z,1.30
2023-05-08T13:52:43.655Z,1.67
2023-05-08T13:55:12.525Z,1.65
2023-05-08T13:57:40.182Z,1.40
2023-05-08T14:00:08.582Z,1.30
2023-05-08T14:02:35.692Z,1.50
2023-05-08T14:05:02.538Z,1.55
2023-05-08T14:07:29.940Z,2.08
2023-05-08T14:09:56.674Z,1.67
2023-05-08T14:12:23.198Z,1.92
2023-05-08T14:14:49.759Z,1.65
2023-05-08T14:17:16.364Z,1.83
2023-05-08T14:19:43.043Z,2.13
2023-05-08T14:22:09.659Z,1.80
2023-05-08T14:24:36.303Z,1.75
2023-05-08T14:27:05.823Z,2.58
2023-05-08T14:29:33.917Z,2.25
2023-05-08T14:32:00.564Z,2.50
2023-05-08T14:34:27.365Z,2.40
2023-05-08T14:36:54.111Z,2.53
2023-05-08T14:39:20.911Z,2.35
2023-05-08T14:41:59.755Z,2.40
2023-05-08T14:44:34.423Z,2.05
2023-05-08T14:47:01.230Z,2.38
2023-05-08T14:49:36.756Z,2.65
2023-05-08T14:52:05.449Z,2.42
2023-05-08T14:54:32.279Z,2.53
2023-05-08T14:56:59.273Z,2.80
2023-05-08T14:59:25.896Z,2.15
2023-05-08T15:01:52.563Z,2.63
2023-05-08T15:04:19.448Z,2.38
2023-05-08T15:06:46.415Z,2.63
2023-05-08T15:09:13.035Z,2.65
2023-05-08T15:11:39.701Z,2.92
2023-05-08T15:14:06.445Z,2.55
2023-05-08T15:16:33.286Z,2.78
2023-05-08T15:18:59.883Z,2.72
2023-05-08T15:21:27.391Z,2.88
2023-05-08T15:23:55.277Z,3.15
2023-05-08T15:26:22.551Z,3.00
2023-05-08T15:28:49.647Z,2.67
2023-05-08T15:31:16.785Z,2.80
2023-05-08T15:33:45.076Z,3.20
2023-05-08T15:36:13.361Z,2.95
2023-05-08T15:38:41.013Z,2.75
2023-05-08T15:41:11.375Z,2.97
2023-05-08T15:43:39.596Z,3.30
2023-05-08T15:46:06.444Z,2.92
2023-05-08T15:48:33.339Z,3.33
2023-05-08T15:50:59.886Z,3.38
2023-05-08T15:53:26.661Z,2.72
2023-05-08T15:55:54.040Z,2.60
2023-05-08T15:58:21.100Z,3.33
2023-05-08T16:00:47.686Z,2.85
2023-05-08T16:03:14.455Z,3.28
2023-05-08T16:05:41.265Z,3.08
2023-05-08T16:08:12.083Z,3.47
2023-05-08T16:10:39.387Z,3.00
2023-05-08T16:13:06.244Z,3.08
2023-05-08T16:15:32.849Z,3.15
2023-05-08T16:17:59.400Z,2.90
2023-05-08T16:20:26.028Z,2.90
2023-05-08T16:22:54.910Z,2.95
2023-05-08T16:25:21.930Z,2.58
2023-05-08T16:27:49.196Z,2.60
2023-05-08T16:30:16.432Z,2.90
2023-05-08T16:32:44.514Z,3.20
2023-05-08T16:35:11.713Z,2.83
2023-05-08T16:37:38.678Z,3.13
2023-05-08T16:40:07.168Z,2.67
2023-05-08T16:42:33.852Z,2.97
2023-05-08T16:45:00.454Z,2.83
2023-05-08T16:47:26.960Z,2.45
2023-05-08T16:49:53.876Z,2.53
2023-05-08T16:52:20.583Z,2.35
2023-05-08T16:54:47.200Z,2.45
2023-05-08T16:57:13.693Z,2.10
2023-05-08T16:59:41.288Z,2.40
2023-05-08T17:02:07.906Z,2.58
2023-05-08T17:04:34.473Z,2.25
2023-05-08T17:07:01.100Z,2.42
2023-05-08T17:09:27.858Z,2.20
2023-05-08T17:11:54.378Z,2.63
2023-05-08T17:14:21.064Z,2.90
2023-05-08T17:16:47.748Z,2.50
2023-05-08T17:19:14.384Z,3.10
2023-05-08T17:21:41.013Z,2.38
2023-05-08T17:24:08.018Z,2.50
2023-05-08T17:26:34.765Z,2.17
2023-05-08T17:29:01.342Z,2.17
2023-05-08T17:31:28.037Z,1.95
2023-05-08T17:33:54.778Z,1.98
2023-05-08T17:36:21.498Z,2.30
2023-05-08T17:38:48.216Z,2.28
2023-05-08T17:41:14.696Z,2.10
2023-05-08T17:43:41.298Z,2.35
2023-05-08T17:46:08.075Z,2.50
2023-05-08T17:48:34.840Z,2.67
2023-05-08T17:51:02.753Z,2.40
2023-05-08T17:53:30.589Z,2.38
2023-05-08T17:55:57.650Z,2.42
2023-05-08T17:58:24.991Z,2.42
2023-05-08T18:00:51.934Z,2.03
2023-05-08T18:03:18.676Z,2.45
2023-05-08T18:05:45.240Z,2.50
2023-05-08T18:08:11.751Z,2.53
2023-05-08T18:10:39.260Z,2.38
2023-05-08T18:13:06.019Z,2.53
2023-05-08T18:15:35.074Z,3.05
2023-05-08T18:18:02.341Z,2.70
2023-05-08T18:20:28.845Z,2.80
2023-05-08T18:22:55.390Z,2.63
2023-05-08T18:25:21.900Z,2.70
2023-05-08T18:27:49.964Z,2.33
2023-05-08T18:30:19.470Z,2.38
2023-05-08T18:32:46.019Z,2.35
2023-05-08T18:35:12.628Z,2.28
2023-05-08T18:37:39.224Z,2.55
2023-05-08T18:40:06.389Z,2.53
2023-05-08T18:42:33.023Z,2.42
2023-05-08T18:45:00.744Z,2.95
2023-05-08T18:47:27.340Z,3.13
2023-05-08T18:49:53.923Z,2.88
2023-05-08T18:52:20.522Z,3.20
2023-05-08T18:54:47.122Z,2.70
2023-05-08T18:57:13.713Z,3.10
2023-05-08T18:59:40.227Z,3.00
2023-05-08T19:02:06.884Z,3.33
2023-05-08T19:04:33.414Z,2.90
2023-05-08T19:07:00.678Z,2.88
2023-05-08T19:09:27.385Z,3.38
2023-05-08T19:11:54.853Z,2.67
2023-05-08T19:14:21.356Z,2.70
2023-05-08T19:16:47.901Z,4.70
2023-05-08T19:19:14.431Z,3.42
2023-05-08T19:21:40.962Z,3.85
2023-05-08T19:24:07.796Z,5.22
2023-05-08T19:26:34.558Z,6.25
2023-05-08T19:29:01.043Z,5.47
2023-05-08T19:31:27.695Z,5.95
2023-05-08T19:33:54.666Z,4.90
2023-05-08T19:36:21.253Z,4.72
2023-05-08T19:38:47.771Z,4.90
2023-05-08T19:41:14.449Z,4.13
2023-05-08T19:43:40.916Z,5.18
2023-05-08T19:46:07.525Z,5.38
2023-05-08T19:48:34.082Z,5.05
2023-05-08T19:51:09.991Z,5.47
2023-05-08T19:53:36.642Z,5.13
2023-05-08T19:56:03.246Z,4.65
2023-05-08T19:58:29.766Z,4.80
2023-05-08T20:00:56.299Z,4.30
2023-05-08T20:03:23.175Z,4.80
2023-05-08T20:05:53.267Z,4.32
2023-05-08T20:08:19.947Z,4.45
2023-05-08T20:10:49.348Z,4.50
2023-05-08T20:13:16.813Z,3.95
2023-05-08T20:15:43.482Z,3.13
2023-05-08T20:18:10.159Z,3.38
2023-05-08T20:20:36.704Z,3.13
2023-05-08T20:23:03.220Z,3.05
2023-05-08T20:25:29.733Z,3.03
2023-05-08T20:27:56.273Z,3.15
2023-05-08T20:30:23.839Z,2.85
2023-05-08T20:32:50.631Z,3.22
2023-05-08T20:35:17.195Z,2.90
2023-05-08T20:37:46.010Z,3.30
2023-05-08T20:40:14.698Z,3.17
2023-05-08T20:42:41.511Z,3.67
2023-05-08T20:45:09.339Z,2.92
2023-05-08T20:47:36.301Z,3.00
2023-05-08T20:50:03.715Z,3.38
2023-05-08T20:52:32.119Z,2.78
2023-05-08T20:54:59.550Z,2.78
2023-05-08T20:57:26.220Z,2.65
2023-05-08T20:59:52.867Z,2.90
2023-05-08T21:02:19.403Z,2.97
2023-05-08T21:04:46.093Z,3.25
2023-05-08T21:07:12.758Z,3.03
2023-05-08T21:09:39.330Z,2.95
2023-05-08T21:12:06.170Z,2.80
2023-05-08T21:14:32.709Z,2.90
2023-05-08T21:16:59.388Z,3.53
2023-05-08T21:19:25.921Z,2.80
2023-05-08T21:21:52.624Z,2.97
2023-05-08T21:24:19.093Z,3.45
2023-05-08T21:26:45.788Z,2.95
2023-05-08T21:29:12.330Z,3.03
2023-05-08T21:31:39.319Z,3.42
2023-05-08T21:34:07.036Z,2.70
2023-05-08T21:36:35.110Z,3.03
2023-05-08T21:39:02.715Z,3.10
2023-05-08T21:41:29.331Z,3.08
2023-05-08T21:43:56.267Z,2.85
2023-05-08T21:46:22.986Z,3.05
2023-05-08T21:48:49.594Z,3.25
2023-05-08T21:51:16.189Z,2.85
2023-05-08T21:53:42.705Z,3.50
2023-05-08T21:56:09.384Z,3.08
2023-05-08T21:58:36.084Z,3.33
2023-05-08T22:01:02.857Z,3.08
2023-05-08T22:03:30.535Z,3.08
2023-05-08T22:05:57.198Z,3.03
2023-05-08T22:08:23.842Z,3.00
2023-05-08T22:10:50.714Z,3.28
2023-05-08T22:13:17.380Z,3.13
2023-05-08T22:15:44.072Z,3.88
2023-05-08T22:18:10.660Z,3.47
2023-05-08T22:20:37.194Z,3.40
2023-05-08T22:23:03.686Z,3.13
2023-05-08T22:25:30.262Z,4.07
2023-05-08T22:27:56.762Z,4.25
2023-05-08T22:30:23.417Z,3.70
2023-05-08T22:32:57.817Z,2.85
2023-05-08T22:35:26.689Z,3.40
2023-05-08T22:37:54.064Z,3.58
2023-05-08T22:40:21.857Z,3.60
2023-05-08T22:42:50.180Z,3.80
2023-05-08T22:45:17.273Z,2.47
2023-05-08T22:47:44.126Z,2.88
2023-05-08T22:59:27.204Z,3.47
2023-05-08T23:01:54.322Z,3.08
2023-05-08T23:04:21.449Z,3.50
2023-05-08T23:06:48.033Z,3.72
2023-05-08T23:09:14.545Z,3.08
2023-05-08T23:11:41.060Z,3.75
2023-05-08T23:14:07.552Z,3.88
2023-05-08T23:16:34.088Z,4.05
2023-05-08T23:19:00.803Z,4.15
2023-05-08T23:26:00.908Z,3.95
2023-05-08T23:28:27.762Z,3.67
2023-05-08T23:35:07.920Z,4.60
2023-05-08T23:37:34.476Z,4.10
2023-05-08T23:40:01.187Z,4.28
2023-05-08T23:46:58.217Z,4.55
2023-05-08T23:49:25.378Z,4.70
2023-05-08T23:51:51.923Z,4.90
2023-05-08T23:54:18.517Z,4.63
2023-05-08T23:56:45.152Z,4.63
2023-05-08T23:59:11.785Z,5.53
